sensor_id;sensor_type;location;lat;lon;timestamp;P1;durP1;ratioP1;P2;durP2;ratioP2
8171;SDS011;4127;47.908;10.850;2024-03-02T00:01:34;3.93;;;3.60;;
8171;SDS011;4127;47.908;10.850;2024-03-02T00:04:02;4.07;;;3.77;;
8171;SDS011;4127;47.908;10.850;2024-03-02T00:06:33;3.77;;;3.47;;
8171;SDS011;4127;47.908;10.850;2024-03-02T00:09:01;4.37;;;4.07;;
8171;SDS011;4127;47.908;10.850;2024-03-02T00:11:29;4.73;;;4.37;;
8171;SDS011;4127;47.908;10.850;2024-03-02T00:13:56;4.70;;;4.30;;
8171;SDS011;4127;47.908;10.850;2024-03-02T00:16:23;4.40;;;4.10;;
8171;SDS011;4127;47.908;10.850;2024-03-02T00:18:50;4.40;;;4.10;;
8171;SDS011;4127;47.908;10.850;2024-03-02T00:21:17;5.50;;;5.00;;
8171;SDS011;4127;47.908;10.850;2024-03-02T00:23:47;4.57;;;4.27;;
8171;SDS011;4127;47.908;10.850;2024-03-02T00:26:15;4.60;;;4.30;;
8171;SDS011;4127;47.908;10.850;2024-03-02T00:28:42;5.10;;;4.70;;
8171;SDS011;4127;47.908;10.850;2024-03-02T00:31:12;5.00;;;4.60;;
8171;SDS011;4127;47.908;10.850;2024-03-02T00:33:44;5.53;;;5.03;;
8171;SDS011;4127;47.908;10.850;2024-03-02T00:36:14;5.00;;;4.60;;
8171;SDS011;4127;47.908;10.850;2024-03-02T00:38:49;4.73;;;4.40;;
8171;SDS011;4127;47.908;10.850;2024-03-02T00:41:24;4.77;;;4.47;;
8171;SDS011;4127;47.908;10.850;2024-03-02T00:46:39;4.60;;;4.30;;
8171;SDS011;4127;47.908;10.850;2024-03-02T00:51:48;4.50;;;4.10;;
8171;SDS011;4127;47.908;10.850;2024-03-02T00:54:22;4.73;;;4.43;;
8171;SDS011;4127;47.908;10.850;2024-03-02T00:56:52;4.77;;;4.37;;
8171;SDS011;4127;47.908;10.850;2024-03-02T00:59:22;4.53;;;4.23;;
8171;SDS011;4127;47.908;10.850;2024-03-02T01:01:49;4.77;;;4.37;;
8171;SDS011;4127;47.908;10.850;2024-03-02T01:04:16;4.67;;;4.27;;
8171;SDS011;4127;47.908;10.850;2024-03-02T01:06:43;4.90;;;4.50;;
8171;SDS011;4127;47.908;10.850;2024-03-02T01:09:10;4.43;;;4.10;;
8171;SDS011;4127;47.908;10.850;2024-03-02T01:11:38;4.50;;;4.20;;
8171;SDS011;4127;47.908;10.850;2024-03-02T01:14:06;4.20;;;3.90;;
8171;SDS011;4127;47.908;10.850;2024-03-02T01:16:33;5.13;;;4.73;;
8171;SDS011;4127;47.908;10.850;2024-03-02T01:18:59;4.97;;;4.57;;
8171;SDS011;4127;47.908;10.850;2024-03-02T01:21:27;4.20;;;3.90;;
8171;SDS011;4127;47.908;10.850;2024-03-02T01:23:54;4.23;;;3.93;;
8171;SDS011;4127;47.908;10.850;2024-03-02T01:26:20;4.50;;;4.13;;
8171;SDS011;4127;47.908;10.850;2024-03-02T01:28:47;4.70;;;4.30;;
8171;SDS011;4127;47.908;10.850;2024-03-02T01:31:15;5.00;;;4.60;;
8171;SDS011;4127;47.908;10.850;2024-03-02T01:33:41;5.00;;;4.60;;
8171;SDS011;4127;47.908;10.850;2024-03-02T01:36:09;4.90;;;4.50;;
8171;SDS011;4127;47.908;10.850;2024-03-02T01:38:36;4.70;;;4.30;;
8171;SDS011;4127;47.908;10.850;2024-03-02T01:41:03;4.83;;;4.43;;
8171;SDS011;4127;47.908;10.850;2024-03-02T01:43:30;4.77;;;4.37;;
8171;SDS011;4127;47.908;10.850;2024-03-02T01:45:56;5.07;;;4.67;;
8171;SDS011;4127;47.908;10.850;2024-03-02T01:48:24;4.23;;;3.93;;
8171;SDS011;4127;47.908;10.850;2024-03-02T01:50:51;4.47;;;4.07;;
8171;SDS011;4127;47.908;10.850;2024-03-02T01:53:18;4.23;;;3.93;;
8171;SDS011;4127;47.908;10.850;2024-03-02T01:55:45;4.80;;;4.40;;
8171;SDS011;4127;47.908;10.850;2024-03-02T01:58:12;4.50;;;4.20;;
8171;SDS011;4127;47.908;10.850;2024-03-02T02:00:40;4.50;;;4.17;;
8171;SDS011;4127;47.908;10.850;2024-03-02T02:03:07;4.33;;;4.03;;
8171;SDS011;4127;47.908;10.850;2024-03-02T02:05:34;4.53;;;4.17;;
8171;SDS011;4127;47.908;10.850;2024-03-02T02:08:01;4.37;;;3.97;;
8171;SDS011;4127;47.908;10.850;2024-03-02T02:10:28;4.67;;;4.10;;
8171;SDS011;4127;47.908;10.850;2024-03-02T02:12:55;3.90;;;3.60;;
8171;SDS011;4127;47.908;10.850;2024-03-02T02:15:23;3.90;;;3.60;;
8171;SDS011;4127;47.908;10.850;2024-03-02T02:17:52;4.70;;;4.40;;
8171;SDS011;4127;47.908;10.850;2024-03-02T02:20:19;4.93;;;4.53;;
8171;SDS011;4127;47.908;10.850;2024-03-02T02:23:02;4.87;;;4.47;;
8171;SDS011;4127;47.908;10.850;2024-03-02T02:25:31;4.80;;;4.40;;
8171;SDS011;4127;47.908;10.850;2024-03-02T02:27:58;5.30;;;4.90;;
8171;SDS011;4127;47.908;10.850;2024-03-02T02:30:26;4.63;;;4.23;;
8171;SDS011;4127;47.908;10.850;2024-03-02T02:32:56;4.30;;;4.00;;
8171;SDS011;4127;47.908;10.850;2024-03-02T02:35:24;4.97;;;4.47;;
8171;SDS011;4127;47.908;10.850;2024-03-02T02:37:52;4.80;;;4.40;;
8171;SDS011;4127;47.908;10.850;2024-03-02T02:40:20;4.57;;;4.17;;
8171;SDS011;4127;47.908;10.850;2024-03-02T02:42:47;3.90;;;3.60;;
8171;SDS011;4127;47.908;10.850;2024-03-02T02:45:14;4.00;;;3.70;;
8171;SDS011;4127;47.908;10.850;2024-03-02T02:47:42;4.53;;;4.13;;
8171;SDS011;4127;47.908;10.850;2024-03-02T02:50:10;4.60;;;4.20;;
8171;SDS011;4127;47.908;10.850;2024-03-02T02:52:38;4.93;;;4.53;;
8171;SDS011;4127;47.908;10.850;2024-03-02T02:55:07;4.60;;;4.20;;
8171;SDS011;4127;47.908;10.850;2024-03-02T02:57:35;4.60;;;4.20;;
8171;SDS011;4127;47.908;10.850;2024-03-02T03:00:05;4.40;;;4.00;;
8171;SDS011;4127;47.908;10.850;2024-03-02T03:02:37;4.40;;;4.10;;
8171;SDS011;4127;47.908;10.850;2024-03-02T03:05:05;4.07;;;3.77;;
8171;SDS011;4127;47.908;10.850;2024-03-02T03:07:32;4.07;;;3.77;;
8171;SDS011;4127;47.908;10.850;2024-03-02T03:10:03;4.83;;;4.33;;
8171;SDS011;4127;47.908;10.850;2024-03-02T03:12:30;4.23;;;3.93;;
8171;SDS011;4127;47.908;10.850;2024-03-02T03:15:00;4.30;;;3.90;;
8171;SDS011;4127;47.908;10.850;2024-03-02T03:17:27;4.10;;;3.80;;
8171;SDS011;4127;47.908;10.850;2024-03-02T03:19:54;4.17;;;3.87;;
8171;SDS011;4127;47.908;10.850;2024-03-02T03:22:21;4.30;;;4.00;;
8171;SDS011;4127;47.908;10.850;2024-03-02T03:24:48;4.20;;;3.90;;
8171;SDS011;4127;47.908;10.850;2024-03-02T03:27:15;4.13;;;3.83;;
8171;SDS011;4127;47.908;10.850;2024-03-02T03:29:42;4.10;;;3.80;;
8171;SDS011;4127;47.908;10.850;2024-03-02T03:32:09;4.97;;;4.57;;
8171;SDS011;4127;47.908;10.850;2024-03-02T03:34:35;4.37;;;4.07;;
8171;SDS011;4127;47.908;10.850;2024-03-02T03:37:02;4.70;;;4.30;;
8171;SDS011;4127;47.908;10.850;2024-03-02T03:39:29;4.50;;;4.20;;
8171;SDS011;4127;47.908;10.850;2024-03-02T03:41:56;4.47;;;4.10;;
8171;SDS011;4127;47.908;10.850;2024-03-02T03:44:23;4.10;;;3.80;;
8171;SDS011;4127;47.908;10.850;2024-03-02T03:46:50;4.10;;;3.80;;
8171;SDS011;4127;47.908;10.850;2024-03-02T03:49:17;5.03;;;4.30;;
8171;SDS011;4127;47.908;10.850;2024-03-02T03:51:44;4.23;;;3.93;;
8171;SDS011;4127;47.908;10.850;2024-03-02T03:54:11;4.00;;;3.70;;
8171;SDS011;4127;47.908;10.850;2024-03-02T03:56:38;4.10;;;3.80;;
8171;SDS011;4127;47.908;10.850;2024-03-02T03:59:05;4.07;;;3.77;;
8171;SDS011;4127;47.908;10.850;2024-03-02T04:01:32;3.77;;;3.47;;
8171;SDS011;4127;47.908;10.850;2024-03-02T04:04:00;4.33;;;4.03;;
8171;SDS011;4127;47.908;10.850;2024-03-02T04:06:29;3.87;;;3.57;;
8171;SDS011;4127;47.908;10.850;2024-03-02T04:08:57;4.50;;;4.10;;
8171;SDS011;4127;47.908;10.850;2024-03-02T04:11:23;4.40;;;4.00;;
8171;SDS011;4127;47.908;10.850;2024-03-02T04:13:50;4.03;;;3.73;;
8171;SDS011;4127;47.908;10.850;2024-03-02T04:16:19;4.57;;;4.20;;
8171;SDS011;4127;47.908;10.850;2024-03-02T04:18:46;3.97;;;3.67;;
8171;SDS011;4127;47.908;10.850;2024-03-02T04:21:13;4.07;;;3.77;;
8171;SDS011;4127;47.908;10.850;2024-03-02T04:23:40;4.10;;;3.80;;
8171;SDS011;4127;47.908;10.850;2024-03-02T04:26:06;4.10;;;3.80;;
8171;SDS011;4127;47.908;10.850;2024-03-02T04:28:33;3.93;;;3.63;;
8171;SDS011;4127;47.908;10.850;2024-03-02T04:31:00;3.67;;;3.37;;
8171;SDS011;4127;47.908;10.850;2024-03-02T04:33:27;4.47;;;4.07;;
8171;SDS011;4127;47.908;10.850;2024-03-02T04:35:54;4.20;;;3.90;;
8171;SDS011;4127;47.908;10.850;2024-03-02T04:38:21;4.00;;;3.70;;
8171;SDS011;4127;47.908;10.850;2024-03-02T04:40:48;3.70;;;3.40;;
8171;SDS011;4127;47.908;10.850;2024-03-02T04:43:15;3.60;;;3.40;;
8171;SDS011;4127;47.908;10.850;2024-03-02T04:45:42;5.27;;;3.87;;
8171;SDS011;4127;47.908;10.850;2024-03-02T04:48:09;4.20;;;3.90;;
8171;SDS011;4127;47.908;10.850;2024-03-02T04:50:36;3.90;;;3.60;;
8171;SDS011;4127;47.908;10.850;2024-03-02T04:53:03;4.10;;;3.80;;
8171;SDS011;4127;47.908;10.850;2024-03-02T04:55:30;4.30;;;3.93;;
8171;SDS011;4127;47.908;10.850;2024-03-02T04:58:00;4.07;;;3.77;;
8171;SDS011;4127;47.908;10.850;2024-03-02T05:00:27;3.63;;;3.33;;
8171;SDS011;4127;47.908;10.850;2024-03-02T05:02:53;3.97;;;3.67;;
8171;SDS011;4127;47.908;10.850;2024-03-02T05:05:20;4.03;;;3.73;;
8171;SDS011;4127;47.908;10.850;2024-03-02T05:07:47;4.07;;;3.77;;
8171;SDS011;4127;47.908;10.850;2024-03-02T05:10:14;4.57;;;4.10;;
8171;SDS011;4127;47.908;10.850;2024-03-02T05:12:41;4.10;;;3.80;;
8171;SDS011;4127;47.908;10.850;2024-03-02T05:15:18;3.50;;;3.30;;
8171;SDS011;4127;47.908;10.850;2024-03-02T05:17:44;3.80;;;3.50;;
8171;SDS011;4127;47.908;10.850;2024-03-02T05:20:12;3.87;;;3.57;;
8171;SDS011;4127;47.908;10.850;2024-03-02T05:22:39;4.30;;;4.00;;
8171;SDS011;4127;47.908;10.850;2024-03-02T05:25:06;3.83;;;3.53;;
8171;SDS011;4127;47.908;10.850;2024-03-02T05:27:33;3.80;;;3.50;;
8171;SDS011;4127;47.908;10.850;2024-03-02T05:30:01;3.87;;;3.57;;
8171;SDS011;4127;47.908;10.850;2024-03-02T05:32:28;3.87;;;3.57;;
8171;SDS011;4127;47.908;10.850;2024-03-02T05:34:55;3.77;;;3.47;;
8171;SDS011;4127;47.908;10.850;2024-03-02T05:37:22;3.97;;;3.67;;
8171;SDS011;4127;47.908;10.850;2024-03-02T05:39:49;3.77;;;3.47;;
8171;SDS011;4127;47.908;10.850;2024-03-02T05:42:16;4.03;;;3.63;;
8171;SDS011;4127;47.908;10.850;2024-03-02T05:44:43;3.93;;;3.63;;
8171;SDS011;4127;47.908;10.850;2024-03-02T05:47:10;4.07;;;3.77;;
8171;SDS011;4127;47.908;10.850;2024-03-02T05:49:37;3.77;;;3.47;;
8171;SDS011;4127;47.908;10.850;2024-03-02T05:52:04;4.00;;;3.70;;
8171;SDS011;4127;47.908;10.850;2024-03-02T05:54:31;7.60;;;3.90;;
8171;SDS011;4127;47.908;10.850;2024-03-02T05:56:58;3.60;;;3.30;;
8171;SDS011;4127;47.908;10.850;2024-03-02T05:59:43;3.77;;;3.40;;
8171;SDS011;4127;47.908;10.850;2024-03-02T06:02:10;3.90;;;3.60;;
8171;SDS011;4127;47.908;10.850;2024-03-02T06:04:37;4.40;;;3.50;;
8171;SDS011;4127;47.908;10.850;2024-03-02T06:07:04;3.97;;;3.67;;
8171;SDS011;4127;47.908;10.850;2024-03-02T06:09:31;4.47;;;4.07;;
8171;SDS011;4127;47.908;10.850;2024-03-02T06:11:58;4.57;;;3.90;;
8171;SDS011;4127;47.908;10.850;2024-03-02T06:14:25;4.10;;;3.70;;
8171;SDS011;4127;47.908;10.850;2024-03-02T06:16:52;4.30;;;4.00;;
8171;SDS011;4127;47.908;10.850;2024-03-02T06:19:19;4.40;;;4.00;;
8171;SDS011;4127;47.908;10.850;2024-03-02T06:21:46;4.20;;;3.90;;
8171;SDS011;4127;47.908;10.850;2024-03-02T06:24:13;4.00;;;3.70;;
8171;SDS011;4127;47.908;10.850;2024-03-02T06:26:40;4.20;;;3.90;;
8171;SDS011;4127;47.908;10.850;2024-03-02T06:29:07;4.20;;;3.90;;
8171;SDS011;4127;47.908;10.850;2024-03-02T06:31:34;4.23;;;3.93;;
8171;SDS011;4127;47.908;10.850;2024-03-02T06:34:01;4.57;;;4.17;;
8171;SDS011;4127;47.908;10.850;2024-03-02T06:36:30;4.67;;;3.90;;
8171;SDS011;4127;47.908;10.850;2024-03-02T06:38:57;4.60;;;4.20;;
8171;SDS011;4127;47.908;10.850;2024-03-02T06:41:23;4.60;;;4.20;;
8171;SDS011;4127;47.908;10.850;2024-03-02T06:43:50;4.50;;;4.10;;
8171;SDS011;4127;47.908;10.850;2024-03-02T06:46:25;4.13;;;3.83;;
8171;SDS011;4127;47.908;10.850;2024-03-02T06:48:52;3.87;;;3.57;;
8171;SDS011;4127;47.908;10.850;2024-03-02T06:51:19;4.80;;;4.40;;
8171;SDS011;4127;47.908;10.850;2024-03-02T06:53:46;4.40;;;4.10;;
8171;SDS011;4127;47.908;10.850;2024-03-02T06:56:13;4.40;;;4.10;;
8171;SDS011;4127;47.908;10.850;2024-03-02T06:58:39;4.20;;;3.90;;
8171;SDS011;4127;47.908;10.850;2024-03-02T07:01:06;4.27;;;3.87;;
8171;SDS011;4127;47.908;10.850;2024-03-02T07:03:33;4.17;;;3.87;;
8171;SDS011;4127;47.908;10.850;2024-03-02T07:06:02;4.10;;;3.80;;
8171;SDS011;4127;47.908;10.850;2024-03-02T07:08:29;4.07;;;3.77;;
8171;SDS011;4127;47.908;10.850;2024-03-02T07:10:56;4.17;;;3.77;;
8171;SDS011;4127;47.908;10.850;2024-03-02T07:13:23;4.20;;;3.80;;
8171;SDS011;4127;47.908;10.850;2024-03-02T07:15:50;3.97;;;3.67;;
8171;SDS011;4127;47.908;10.850;2024-03-02T07:18:32;4.17;;;3.87;;
8171;SDS011;4127;47.908;10.850;2024-03-02T07:21:18;4.00;;;3.60;;
8171;SDS011;4127;47.908;10.850;2024-03-02T07:23:45;4.07;;;3.77;;
8171;SDS011;4127;47.908;10.850;2024-03-02T07:26:12;3.97;;;3.67;;
8171;SDS011;4127;47.908;10.850;2024-03-02T07:28:42;4.20;;;3.90;;
8171;SDS011;4127;47.908;10.850;2024-03-02T07:31:11;6.10;;;5.50;;
8171;SDS011;4127;47.908;10.850;2024-03-02T07:33:38;6.20;;;5.60;;
8171;SDS011;4127;47.908;10.850;2024-03-02T07:36:05;5.37;;;4.90;;
8171;SDS011;4127;47.908;10.850;2024-03-02T07:38:32;4.30;;;3.90;;
8171;SDS011;4127;47.908;10.850;2024-03-02T07:41:01;4.20;;;3.80;;
8171;SDS011;4127;47.908;10.850;2024-03-02T07:43:28;5.07;;;4.67;;
8171;SDS011;4127;47.908;10.850;2024-03-02T07:45:55;4.33;;;3.97;;
8171;SDS011;4127;47.908;10.850;2024-03-02T07:48:23;3.97;;;3.60;;
8171;SDS011;4127;47.908;10.850;2024-03-02T07:50:50;3.80;;;3.50;;
8171;SDS011;4127;47.908;10.850;2024-03-02T07:53:17;3.40;;;3.10;;
8171;SDS011;4127;47.908;10.850;2024-03-02T07:55:44;3.60;;;3.30;;
8171;SDS011;4127;47.908;10.850;2024-03-02T07:58:11;4.30;;;3.90;;
8171;SDS011;4127;47.908;10.850;2024-03-02T08:00:39;3.37;;;3.07;;
8171;SDS011;4127;47.908;10.850;2024-03-02T08:03:07;3.30;;;3.00;;
8171;SDS011;4127;47.908;10.850;2024-03-02T08:05:37;3.70;;;3.40;;
8171;SDS011;4127;47.908;10.850;2024-03-02T08:08:05;3.40;;;3.10;;
8171;SDS011;4127;47.908;10.850;2024-03-02T08:10:32;3.33;;;3.03;;
8171;SDS011;4127;47.908;10.850;2024-03-02T08:12:59;3.10;;;2.90;;
8171;SDS011;4127;47.908;10.850;2024-03-02T08:15:26;2.77;;;2.57;;
8171;SDS011;4127;47.908;10.850;2024-03-02T08:17:53;2.87;;;2.67;;
8171;SDS011;4127;47.908;10.850;2024-03-02T08:20:20;2.67;;;2.47;;
8171;SDS011;4127;47.908;10.850;2024-03-02T08:22:47;2.80;;;2.60;;
8171;SDS011;4127;47.908;10.850;2024-03-02T08:25:14;3.07;;;2.77;;
8171;SDS011;4127;47.908;10.850;2024-03-02T08:27:42;2.87;;;2.67;;
8171;SDS011;4127;47.908;10.850;2024-03-02T08:30:09;2.97;;;2.77;;
8171;SDS011;4127;47.908;10.850;2024-03-02T08:32:37;2.60;;;2.40;;
8171;SDS011;4127;47.908;10.850;2024-03-02T08:35:04;2.77;;;2.57;;
8171;SDS011;4127;47.908;10.850;2024-03-02T08:37:31;3.17;;;2.93;;
8171;SDS011;4127;47.908;10.850;2024-03-02T08:39:58;3.10;;;2.90;;
8171;SDS011;4127;47.908;10.850;2024-03-02T08:42:26;3.00;;;2.80;;
8171;SDS011;4127;47.908;10.850;2024-03-02T08:44:53;2.57;;;2.37;;
8171;SDS011;4127;47.908;10.850;2024-03-02T08:47:20;3.17;;;2.90;;
8171;SDS011;4127;47.908;10.850;2024-03-02T08:49:47;2.90;;;2.70;;
8171;SDS011;4127;47.908;10.850;2024-03-02T08:52:13;3.30;;;3.07;;
8171;SDS011;4127;47.908;10.850;2024-03-02T08:54:40;3.57;;;3.23;;
8171;SDS011;4127;47.908;10.850;2024-03-02T08:57:07;2.83;;;2.63;;
8171;SDS011;4127;47.908;10.850;2024-03-02T08:59:34;2.93;;;2.63;;
8171;SDS011;4127;47.908;10.850;2024-03-02T09:02:01;2.50;;;2.30;;
8171;SDS011;4127;47.908;10.850;2024-03-02T09:04:28;2.10;;;2.00;;
8171;SDS011;4127;47.908;10.850;2024-03-02T09:07:00;2.57;;;2.37;;
8171;SDS011;4127;47.908;10.850;2024-03-02T09:09:27;2.13;;;2.03;;
8171;SDS011;4127;47.908;10.850;2024-03-02T09:11:54;1.73;;;1.63;;
8171;SDS011;4127;47.908;10.850;2024-03-02T09:14:23;2.50;;;2.30;;
8171;SDS011;4127;47.908;10.850;2024-03-02T09:16:50;2.70;;;2.50;;
8171;SDS011;4127;47.908;10.850;2024-03-02T09:19:17;2.70;;;2.50;;
8171;SDS011;4127;47.908;10.850;2024-03-02T09:21:45;2.87;;;2.67;;
8171;SDS011;4127;47.908;10.850;2024-03-02T09:24:12;2.70;;;2.50;;
8171;SDS011;4127;47.908;10.850;2024-03-02T09:26:43;2.50;;;2.30;;
8171;SDS011;4127;47.908;10.850;2024-03-02T09:29:10;2.10;;;2.00;;
8171;SDS011;4127;47.908;10.850;2024-03-02T09:31:40;2.47;;;2.27;;
8171;SDS011;4127;47.908;10.850;2024-03-02T09:34:08;2.33;;;2.13;;
8171;SDS011;4127;47.908;10.850;2024-03-02T09:36:35;2.10;;;2.00;;
8171;SDS011;4127;47.908;10.850;2024-03-02T09:39:02;2.43;;;2.23;;
8171;SDS011;4127;47.908;10.850;2024-03-02T09:41:30;3.20;;;2.70;;
8171;SDS011;4127;47.908;10.850;2024-03-02T09:43:59;2.50;;;2.30;;
8171;SDS011;4127;47.908;10.850;2024-03-02T09:46:26;3.47;;;3.17;;
8171;SDS011;4127;47.908;10.850;2024-03-02T09:48:53;2.90;;;2.70;;
8171;SDS011;4127;47.908;10.850;2024-03-02T09:51:21;2.90;;;2.70;;
8171;SDS011;4127;47.908;10.850;2024-03-02T09:53:48;3.07;;;2.87;;
8171;SDS011;4127;47.908;10.850;2024-03-02T09:56:16;3.37;;;3.07;;
8171;SDS011;4127;47.908;10.850;2024-03-02T09:58:44;3.33;;;2.60;;
8171;SDS011;4127;47.908;10.850;2024-03-02T10:01:11;2.50;;;2.30;;
8171;SDS011;4127;47.908;10.850;2024-03-02T10:03:38;2.50;;;2.30;;
8171;SDS011;4127;47.908;10.850;2024-03-02T10:08:54;2.83;;;1.83;;
8171;SDS011;4127;47.908;10.850;2024-03-02T10:11:28;2.23;;;2.03;;
8171;SDS011;4127;47.908;10.850;2024-03-02T10:14:18;2.27;;;2.07;;
8171;SDS011;4127;47.908;10.850;2024-03-02T10:16:45;2.70;;;2.07;;
8171;SDS011;4127;47.908;10.850;2024-03-02T10:19:22;1.60;;;1.50;;
8171;SDS011;4127;47.908;10.850;2024-03-02T10:21:51;1.70;;;1.60;;
8171;SDS011;4127;47.908;10.850;2024-03-02T10:24:20;1.70;;;1.60;;
8171;SDS011;4127;47.908;10.850;2024-03-02T10:26:48;1.77;;;1.67;;
8171;SDS011;4127;47.908;10.850;2024-03-02T10:29:15;2.70;;;1.40;;
8171;SDS011;4127;47.908;10.850;2024-03-02T10:31:46;1.60;;;1.50;;
8171;SDS011;4127;47.908;10.850;2024-03-02T10:34:13;1.57;;;1.47;;
8171;SDS011;4127;47.908;10.850;2024-03-02T10:36:41;1.60;;;1.50;;
8171;SDS011;4127;47.908;10.850;2024-03-02T10:39:10;1.67;;;1.57;;
8171;SDS011;4127;47.908;10.850;2024-03-02T10:41:38;1.90;;;1.70;;
8171;SDS011;4127;47.908;10.850;2024-03-02T10:44:07;1.60;;;1.50;;
8171;SDS011;4127;47.908;10.850;2024-03-02T10:46:36;1.93;;;1.83;;
8171;SDS011;4127;47.908;10.850;2024-03-02T10:49:04;2.17;;;2.07;;
8171;SDS011;4127;47.908;10.850;2024-03-02T10:51:34;1.80;;;1.70;;
8171;SDS011;4127;47.908;10.850;2024-03-02T10:54:03;2.00;;;1.90;;
8171;SDS011;4127;47.908;10.850;2024-03-02T10:56:38;2.60;;;2.40;;
8171;SDS011;4127;47.908;10.850;2024-03-02T11:02:08;2.70;;;2.50;;
8171;SDS011;4127;47.908;10.850;2024-03-02T11:04:38;3.10;;;2.80;;
8171;SDS011;4127;47.908;10.850;2024-03-02T11:07:07;2.90;;;2.70;;
8171;SDS011;4127;47.908;10.850;2024-03-02T11:09:57;3.60;;;3.30;;
8171;SDS011;4127;47.908;10.850;2024-03-02T11:12:31;3.30;;;3.10;;
8171;SDS011;4127;47.908;10.850;2024-03-02T11:15:05;3.67;;;3.47;;
8171;SDS011;4127;47.908;10.850;2024-03-02T11:17:38;3.10;;;2.90;;
8171;SDS011;4127;47.908;10.850;2024-03-02T11:20:07;3.20;;;2.90;;
8171;SDS011;4127;47.908;10.850;2024-03-02T11:22:35;2.80;;;2.60;;
8171;SDS011;4127;47.908;10.850;2024-03-02T11:25:03;2.70;;;2.53;;
8171;SDS011;4127;47.908;10.850;2024-03-02T11:35:38;2.40;;;2.30;;
8171;SDS011;4127;47.908;10.850;2024-03-02T11:38:15;2.60;;;2.40;;
8171;SDS011;4127;47.908;10.850;2024-03-02T11:40:42;2.17;;;2.07;;
8171;SDS011;4127;47.908;10.850;2024-03-02T11:43:09;3.43;;;3.13;;
8171;SDS011;4127;47.908;10.850;2024-03-02T11:45:37;2.97;;;2.77;;
8171;SDS011;4127;47.908;10.850;2024-03-02T11:48:10;3.03;;;2.80;;
8171;SDS011;4127;47.908;10.850;2024-03-02T11:50:46;2.87;;;2.67;;
8171;SDS011;4127;47.908;10.850;2024-03-02T11:53:15;2.70;;;2.50;;
8171;SDS011;4127;47.908;10.850;2024-03-02T11:55:43;2.90;;;2.70;;
8171;SDS011;4127;47.908;10.850;2024-03-02T11:58:14;3.30;;;3.00;;
8171;SDS011;4127;47.908;10.850;2024-03-02T12:00:46;3.50;;;3.20;;
8171;SDS011;4127;47.908;10.850;2024-03-02T12:03:14;3.63;;;3.33;;
8171;SDS011;4127;47.908;10.850;2024-03-02T12:05:42;3.53;;;3.23;;
8171;SDS011;4127;47.908;10.850;2024-03-02T12:08:09;3.93;;;3.63;;
8171;SDS011;4127;47.908;10.850;2024-03-02T12:10:38;3.60;;;3.30;;
8171;SDS011;4127;47.908;10.850;2024-03-02T12:13:06;2.97;;;2.77;;
8171;SDS011;4127;47.908;10.850;2024-03-02T12:15:34;3.20;;;2.90;;
8171;SDS011;4127;47.908;10.850;2024-03-02T12:18:03;3.77;;;3.47;;
8171;SDS011;4127;47.908;10.850;2024-03-02T12:20:31;3.50;;;3.20;;
8171;SDS011;4127;47.908;10.850;2024-03-02T12:22:59;3.60;;;3.33;;
8171;SDS011;4127;47.908;10.850;2024-03-02T12:25:31;3.50;;;3.20;;
8171;SDS011;4127;47.908;10.850;2024-03-02T12:28:02;2.87;;;2.50;;
8171;SDS011;4127;47.908;10.850;2024-03-02T12:30:30;5.73;;;5.13;;
8171;SDS011;4127;47.908;10.850;2024-03-02T12:32:57;2.60;;;2.40;;
8171;SDS011;4127;47.908;10.850;2024-03-02T12:35:25;2.63;;;2.43;;
8171;SDS011;4127;47.908;10.850;2024-03-02T12:37:52;2.73;;;2.53;;
8171;SDS011;4127;47.908;10.850;2024-03-02T12:40:21;2.80;;;2.53;;
8171;SDS011;4127;47.908;10.850;2024-03-02T12:42:50;3.50;;;3.20;;
8171;SDS011;4127;47.908;10.850;2024-03-02T12:45:18;4.10;;;3.20;;
8171;SDS011;4127;47.908;10.850;2024-03-02T12:47:51;3.87;;;3.57;;
8171;SDS011;4127;47.908;10.850;2024-03-02T12:50:20;3.50;;;3.27;;
8171;SDS011;4127;47.908;10.850;2024-03-02T12:52:51;3.43;;;3.23;;
8171;SDS011;4127;47.908;10.850;2024-03-02T12:55:20;3.20;;;3.00;;
8171;SDS011;4127;47.908;10.850;2024-03-02T12:57:51;3.60;;;3.30;;
8171;SDS011;4127;47.908;10.850;2024-03-02T13:00:19;3.43;;;3.07;;
8171;SDS011;4127;47.908;10.850;2024-03-02T13:02:48;3.13;;;2.93;;
8171;SDS011;4127;47.908;10.850;2024-03-02T13:05:18;3.57;;;2.97;;
8171;SDS011;4127;47.908;10.850;2024-03-02T13:07:46;3.60;;;3.30;;
8171;SDS011;4127;47.908;10.850;2024-03-02T13:10:14;3.80;;;3.50;;
8171;SDS011;4127;47.908;10.850;2024-03-02T13:12:42;10.50;;;8.17;;
8171;SDS011;4127;47.908;10.850;2024-03-02T13:15:09;3.77;;;3.47;;
8171;SDS011;4127;47.908;10.850;2024-03-02T13:17:42;3.50;;;3.20;;
8171;SDS011;4127;47.908;10.850;2024-03-02T13:20:12;3.17;;;2.87;;
8171;SDS011;4127;47.908;10.850;2024-03-02T13:22:41;3.17;;;2.97;;
8171;SDS011;4127;47.908;10.850;2024-03-02T13:25:08;3.40;;;3.10;;
8171;SDS011;4127;47.908;10.850;2024-03-02T13:27:38;3.07;;;2.87;;
8171;SDS011;4127;47.908;10.850;2024-03-02T13:30:05;3.47;;;3.17;;
8171;SDS011;4127;47.908;10.850;2024-03-02T13:32:32;3.40;;;3.10;;
8171;SDS011;4127;47.908;10.850;2024-03-02T13:34:59;2.70;;;2.50;;
8171;SDS011;4127;47.908;10.850;2024-03-02T13:37:26;3.30;;;3.00;;
8171;SDS011;4127;47.908;10.850;2024-03-02T13:39:53;3.17;;;2.87;;
8171;SDS011;4127;47.908;10.850;2024-03-02T13:42:20;3.33;;;3.03;;
8171;SDS011;4127;47.908;10.850;2024-03-02T13:44:48;5.57;;;3.60;;
8171;SDS011;4127;47.908;10.850;2024-03-02T13:47:17;3.53;;;3.23;;
8171;SDS011;4127;47.908;10.850;2024-03-02T13:49:44;3.50;;;3.20;;
8171;SDS011;4127;47.908;10.850;2024-03-02T13:52:13;4.50;;;3.53;;
8171;SDS011;4127;47.908;10.850;2024-03-02T13:54:41;3.70;;;3.40;;
8171;SDS011;4127;47.908;10.850;2024-03-02T13:57:10;3.80;;;3.37;;
8171;SDS011;4127;47.908;10.850;2024-03-02T13:59:39;6.00;;;3.50;;
8171;SDS011;4127;47.908;10.850;2024-03-02T14:02:08;3.87;;;3.57;;
8171;SDS011;4127;47.908;10.850;2024-03-02T14:04:35;4.40;;;4.00;;
8171;SDS011;4127;47.908;10.850;2024-03-02T14:07:04;4.50;;;4.10;;
8171;SDS011;4127;47.908;10.850;2024-03-02T14:09:35;5.27;;;4.13;;
8171;SDS011;4127;47.908;10.850;2024-03-02T14:12:03;4.77;;;4.20;;
8171;SDS011;4127;47.908;10.850;2024-03-02T14:14:32;7.33;;;4.53;;
8171;SDS011;4127;47.908;10.850;2024-03-02T14:16:59;4.13;;;3.73;;
8171;SDS011;4127;47.908;10.850;2024-03-02T14:19:30;4.60;;;3.40;;
8171;SDS011;4127;47.908;10.850;2024-03-02T14:21:58;4.37;;;3.87;;
8171;SDS011;4127;47.908;10.850;2024-03-02T14:24:25;4.80;;;4.23;;
8171;SDS011;4127;47.908;10.850;2024-03-02T14:26:53;5.93;;;4.40;;
8171;SDS011;4127;47.908;10.850;2024-03-02T14:29:31;8.03;;;6.27;;
8171;SDS011;4127;47.908;10.850;2024-03-02T14:31:59;5.37;;;4.10;;
8171;SDS011;4127;47.908;10.850;2024-03-02T14:34:26;4.40;;;3.97;;
8171;SDS011;4127;47.908;10.850;2024-03-02T14:36:53;4.30;;;3.90;;
8171;SDS011;4127;47.908;10.850;2024-03-02T14:39:20;4.63;;;3.67;;
8171;SDS011;4127;47.908;10.850;2024-03-02T14:41:47;6.60;;;4.70;;
8171;SDS011;4127;47.908;10.850;2024-03-02T14:44:15;4.80;;;4.30;;
8171;SDS011;4127;47.908;10.850;2024-03-02T14:46:43;5.30;;;4.57;;
8171;SDS011;4127;47.908;10.850;2024-03-02T14:49:12;5.53;;;4.73;;
8171;SDS011;4127;47.908;10.850;2024-03-02T14:51:39;5.73;;;4.47;;
8171;SDS011;4127;47.908;10.850;2024-03-02T14:54:07;5.40;;;4.90;;
8171;SDS011;4127;47.908;10.850;2024-03-02T14:56:34;6.00;;;4.77;;
8171;SDS011;4127;47.908;10.850;2024-03-02T14:59:00;5.50;;;5.00;;
8171;SDS011;4127;47.908;10.850;2024-03-02T15:01:27;5.50;;;5.00;;
8171;SDS011;4127;47.908;10.850;2024-03-02T15:03:54;5.37;;;4.43;;
8171;SDS011;4127;47.908;10.850;2024-03-02T15:06:21;5.43;;;4.90;;
8171;SDS011;4127;47.908;10.850;2024-03-02T15:08:48;5.47;;;4.97;;
8171;SDS011;4127;47.908;10.850;2024-03-02T15:11:15;7.23;;;5.53;;
8171;SDS011;4127;47.908;10.850;2024-03-02T15:13:42;8.47;;;5.17;;
8171;SDS011;4127;47.908;10.850;2024-03-02T15:16:09;5.57;;;4.93;;
8171;SDS011;4127;47.908;10.850;2024-03-02T15:18:36;5.40;;;4.20;;
8171;SDS011;4127;47.908;10.850;2024-03-02T15:21:03;4.70;;;4.30;;
8171;SDS011;4127;47.908;10.850;2024-03-02T15:23:30;4.37;;;3.97;;
8171;SDS011;4127;47.908;10.850;2024-03-02T15:25:57;5.00;;;4.40;;